sensor_id;sensor_type;location;lat;lon;timestamp;temperature;humidity
32348;DHT22;18821;44.800;10.326;2023-07-22T00:00:53;24.70;99.90
32348;DHT22;18821;44.800;10.326;2023-07-22T00:03:19;24.70;99.90
32348;DHT22;18821;44.800;10.326;2023-07-22T00:05:45;24.70;99.90
32348;DHT22;18821;44.800;10.326;2023-07-22T00:08:11;24.60;99.90
32348;DHT22;18821;44.800;10.326;2023-07-22T00:10:41;24.50;99.90
32348;DHT22;18821;44.800;10.326;2023-07-22T00:13:08;24.50;99.90
32348;DHT22;18821;44.800;10.326;2023-07-22T00:15:34;24.40;99.90
32348;DHT22;18821;44.800;10.326;2023-07-22T00:18:00;24.40;99.90
32348;DHT22;18821;44.800;10.326;2023-07-22T00:20:26;24.30;99.90
32348;DHT22;18821;44.800;10.326;2023-07-22T00:22:53;22.50;99.90
32348;DHT22;18821;44.800;10.326;2023-07-22T00:27:45;23.10;99.90
32348;DHT22;18821;44.800;10.326;2023-07-22T00:30:11;22.40;99.90
32348;DHT22;18821;44.800;10.326;2023-07-22T00:35:07;22.30;99.90
32348;DHT22;18821;44.800;10.326;2023-07-22T00:37:33;23.50;99.90
32348;DHT22;18821;44.800;10.326;2023-07-22T00:40:01;23.10;99.90
32348;DHT22;18821;44.800;10.326;2023-07-22T00:42:28;23.60;99.90
32348;DHT22;18821;44.800;10.326;2023-07-22T00:44:54;22.50;99.90
32348;DHT22;18821;44.800;10.326;2023-07-22T00:47:21;23.20;99.90
32348;DHT22;18821;44.800;10.326;2023-07-22T00:49:49;23.30;99.90
32348;DHT22;18821;44.800;10.326;2023-07-22T00:52:15;23.40;99.90
32348;DHT22;18821;44.800;10.326;2023-07-22T00:54:42;23.40;99.90
32348;DHT22;18821;44.800;10.326;2023-07-22T00:57:09;23.50;99.90
32348;DHT22;18821;44.800;10.326;2023-07-22T00:59:35;23.40;99.90
32348;DHT22;18821;44.800;10.326;2023-07-22T01:02:02;23.30;99.90
32348;DHT22;18821;44.800;10.326;2023-07-22T01:04:27;23.40;99.90
32348;DHT22;18821;44.800;10.326;2023-07-22T01:06:54;23.30;99.90
32348;DHT22;18821;44.800;10.326;2023-07-22T01:09:20;23.00;99.90
32348;DHT22;18821;44.800;10.326;2023-07-22T01:11:46;23.00;99.90
32348;DHT22;18821;44.800;10.326;2023-07-22T01:14:12;22.90;99.90
32348;DHT22;18821;44.800;10.326;2023-07-22T01:16:38;22.90;99.90
32348;DHT22;18821;44.800;10.326;2023-07-22T01:19:05;22.90;99.90
32348;DHT22;18821;44.800;10.326;2023-07-22T01:21:33;22.90;99.90
32348;DHT22;18821;44.800;10.326;2023-07-22T01:24:00;22.90;99.90
32348;DHT22;18821;44.800;10.326;2023-07-22T01:26:26;22.90;99.90
32348;DHT22;18821;44.800;10.326;2023-07-22T01:29:04;22.90;99.90
32348;DHT22;18821;44.800;10.326;2023-07-22T01:31:34;22.90;99.90
32348;DHT22;18821;44.800;10.326;2023-07-22T01:34:01;22.80;99.90
32348;DHT22;18821;44.800;10.326;2023-07-22T01:36:29;22.80;99.90
32348;DHT22;18821;44.800;10.326;2023-07-22T01:38:55;22.80;99.90
32348;DHT22;18821;44.800;10.326;2023-07-22T01:41:21;22.90;99.90
32348;DHT22;18821;44.800;10.326;2023-07-22T01:43:47;22.90;99.90
32348;DHT22;18821;44.800;10.326;2023-07-22T01:46:14;22.90;99.90
32348;DHT22;18821;44.800;10.326;2023-07-22T01:48:41;23.00;99.90
32348;DHT22;18821;44.800;10.326;2023-07-22T01:51:08;23.00;99.90
32348;DHT22;18821;44.800;10.326;2023-07-22T01:53:34;23.00;99.90
32348;DHT22;18821;44.800;10.326;2023-07-22T01:56:01;22.90;99.90
32348;DHT22;18821;44.800;10.326;2023-07-22T01:58:27;22.90;99.90
32348;DHT22;18821;44.800;10.326;2023-07-22T02:00:53;22.90;99.90
32348;DHT22;18821;44.800;10.326;2023-07-22T02:03:19;22.80;99.90
32348;DHT22;18821;44.800;10.326;2023-07-22T02:05:46;22.70;99.90
32348;DHT22;18821;44.800;10.326;2023-07-22T02:08:12;22.60;99.90
32348;DHT22;18821;44.800;10.326;2023-07-22T02:10:38;22.50;99.90
32348;DHT22;18821;44.800;10.326;2023-07-22T02:13:04;22.50;99.90
32348;DHT22;18821;44.800;10.326;2023-07-22T02:15:31;22.50;99.90
32348;DHT22;18821;44.800;10.326;2023-07-22T02:17:57;22.50;99.90
32348;DHT22;18821;44.800;10.326;2023-07-22T02:20:24;22.50;99.90
32348;DHT22;18821;44.800;10.326;2023-07-22T02:22:55;22.50;99.90
32348;DHT22;18821;44.800;10.326;2023-07-22T02:27:48;22.60;99.90
32348;DHT22;18821;44.800;10.326;2023-07-22T02:32:40;22.10;99.90
32348;DHT22;18821;44.800;10.326;2023-07-22T02:35:07;23.00;99.90
32348;DHT22;18821;44.800;10.326;2023-07-22T02:37:36;22.40;99.90
32348;DHT22;18821;44.800;10.326;2023-07-22T02:40:02;23.60;99.90
32348;DHT22;18821;44.800;10.326;2023-07-22T02:42:35;23.10;99.90
32348;DHT22;18821;44.800;10.326;2023-07-22T02:45:02;22.40;99.90
32348;DHT22;18821;44.800;10.326;2023-07-22T02:47:29;23.60;99.90
32348;DHT22;18821;44.800;10.326;2023-07-22T02:49:55;23.40;99.90
32348;DHT22;18821;44.800;10.326;2023-07-22T02:52:21;23.00;99.90
32348;DHT22;18821;44.800;10.326;2023-07-22T02:55:08;22.70;99.90
32348;DHT22;18821;44.800;10.326;2023-07-22T02:57:37;22.10;99.90
32348;DHT22;18821;44.800;10.326;2023-07-22T03:00:04;22.60;99.90
32348;DHT22;18821;44.800;10.326;2023-07-22T03:02:34;22.10;99.90
32348;DHT22;18821;44.800;10.326;2023-07-22T03:05:01;23.40;99.90
32348;DHT22;18821;44.800;10.326;2023-07-22T03:07:28;23.40;99.90
32348;DHT22;18821;44.800;10.326;2023-07-22T03:09:54;22.60;99.90
32348;DHT22;18821;44.800;10.326;2023-07-22T03:12:20;22.20;99.90
32348;DHT22;18821;44.800;10.326;2023-07-22T03:14:46;22.80;99.90
32348;DHT22;18821;44.800;10.326;2023-07-22T03:19:42;23.00;99.90
32348;DHT22;18821;44.800;10.326;2023-07-22T03:22:08;23.10;99.90
32348;DHT22;18821;44.800;10.326;2023-07-22T03:24:35;22.20;99.90
32348;DHT22;18821;44.800;10.326;2023-07-22T03:27:01;22.60;99.90
32348;DHT22;18821;44.800;10.326;2023-07-22T03:29:28;22.80;99.90
32348;DHT22;18821;44.800;10.326;2023-07-22T03:34:21;22.80;99.90
32348;DHT22;18821;44.800;10.326;2023-07-22T03:36:47;22.30;99.90
32348;DHT22;18821;44.800;10.326;2023-07-22T03:39:13;22.20;99.90
32348;DHT22;18821;44.800;10.326;2023-07-22T03:44:05;23.40;99.90
32348;DHT22;18821;44.800;10.326;2023-07-22T03:48:57;22.20;99.90
32348;DHT22;18821;44.800;10.326;2023-07-22T03:51:23;22.30;99.90
32348;DHT22;18821;44.800;10.326;2023-07-22T03:53:49;22.20;99.90
32348;DHT22;18821;44.800;10.326;2023-07-22T03:58:42;22.60;99.90
32348;DHT22;18821;44.800;10.326;2023-07-22T04:01:11;22.40;99.90
32348;DHT22;18821;44.800;10.326;2023-07-22T04:03:37;22.90;99.90
32348;DHT22;18821;44.800;10.326;2023-07-22T04:10:57;22.90;99.90
32348;DHT22;18821;44.800;10.326;2023-07-22T04:13:24;23.00;99.90
32348;DHT22;18821;44.800;10.326;2023-07-22T04:15:51;22.40;99.90
32348;DHT22;18821;44.800;10.326;2023-07-22T04:18:19;23.00;99.90
32348;DHT22;18821;44.800;10.326;2023-07-22T04:20:46;22.70;99.90
32348;DHT22;18821;44.800;10.326;2023-07-22T04:23:14;22.20;99.90
32348;DHT22;18821;44.800;10.326;2023-07-22T04:25:44;23.60;99.90
32348;DHT22;18821;44.800;10.326;2023-07-22T04:30:38;23.20;99.90
32348;DHT22;18821;44.800;10.326;2023-07-22T04:33:05;22.70;99.90
32348;DHT22;18821;44.800;10.326;2023-07-22T04:35:33;22.70;99.90
32348;DHT22;18821;44.800;10.326;2023-07-22T04:40:25;24.30;99.90
32348;DHT22;18821;44.800;10.326;2023-07-22T04:45:18;23.20;99.90
32348;DHT22;18821;44.800;10.326;2023-07-22T04:47:44;23.30;99.90
32348;DHT22;18821;44.800;10.326;2023-07-22T04:50:13;24.10;99.90
32348;DHT22;18821;44.800;10.326;2023-07-22T04:52:45;23.20;99.90
32348;DHT22;18821;44.800;10.326;2023-07-22T04:55:12;23.40;99.90
32348;DHT22;18821;44.800;10.326;2023-07-22T04:57:39;24.40;99.90
32348;DHT22;18821;44.800;10.326;2023-07-22T05:00:07;24.10;99.90
32348;DHT22;18821;44.800;10.326;2023-07-22T05:02:42;23.70;99.90
32348;DHT22;18821;44.800;10.326;2023-07-22T05:05:10;23.70;99.90
32348;DHT22;18821;44.800;10.326;2023-07-22T05:07:35;24.00;99.90
32348;DHT22;18821;44.800;10.326;2023-07-22T05:10:02;23.70;99.90
32348;DHT22;18821;44.800;10.326;2023-07-22T05:12:28;24.40;99.90
32348;DHT22;18821;44.800;10.326;2023-07-22T05:17:21;24.00;99.90
32348;DHT22;18821;44.800;10.326;2023-07-22T05:19:47;23.70;99.90
32348;DHT22;18821;44.800;10.326;2023-07-22T05:22:14;23.50;99.90
32348;DHT22;18821;44.800;10.326;2023-07-22T05:24:40;23.90;99.90
32348;DHT22;18821;44.800;10.326;2023-07-22T05:27:06;24.10;99.90
32348;DHT22;18821;44.800;10.326;2023-07-22T05:29:32;24.20;99.90
32348;DHT22;18821;44.800;10.326;2023-07-22T05:31:58;23.60;99.90
32348;DHT22;18821;44.800;10.326;2023-07-22T05:34:24;24.70;99.90
32348;DHT22;18821;44.800;10.326;2023-07-22T05:39:16;24.40;99.90
32348;DHT22;18821;44.800;10.326;2023-07-22T05:44:10;24.10;99.90
32348;DHT22;18821;44.800;10.326;2023-07-22T05:46:36;24.50;99.90
32348;DHT22;18821;44.800;10.326;2023-07-22T05:49:04;23.50;99.90
32348;DHT22;18821;44.800;10.326;2023-07-22T05:51:31;24.50;99.90
32348;DHT22;18821;44.800;10.326;2023-07-22T05:53:57;25.40;99.90
32348;DHT22;18821;44.800;10.326;2023-07-22T05:56:23;24.90;99.90
32348;DHT22;18821;44.800;10.326;2023-07-22T05:58:49;24.70;99.90
32348;DHT22;18821;44.800;10.326;2023-07-22T06:01:15;25.30;99.90
32348;DHT22;18821;44.800;10.326;2023-07-22T06:03:41;25.20;99.90
32348;DHT22;18821;44.800;10.326;2023-07-22T06:06:08;26.00;99.90
32348;DHT22;18821;44.800;10.326;2023-07-22T06:08:34;26.10;99.90
32348;DHT22;18821;44.800;10.326;2023-07-22T06:11:00;26.90;99.90
32348;DHT22;18821;44.800;10.326;2023-07-22T06:13:26;26.90;99.90
32348;DHT22;18821;44.800;10.326;2023-07-22T06:18:18;26.50;99.90
32348;DHT22;18821;44.800;10.326;2023-07-22T06:20:45;26.80;99.90
32348;DHT22;18821;44.800;10.326;2023-07-22T06:23:11;27.70;99.90
32348;DHT22;18821;44.800;10.326;2023-07-22T06:25:37;27.30;99.90
32348;DHT22;18821;44.800;10.326;2023-07-22T06:28:04;27.10;99.90
32348;DHT22;18821;44.800;10.326;2023-07-22T06:30:30;26.70;99.90
32348;DHT22;18821;44.800;10.326;2023-07-22T06:35:22;27.70;99.90
32348;DHT22;18821;44.800;10.326;2023-07-22T06:40:15;26.80;99.90
32348;DHT22;18821;44.800;10.326;2023-07-22T06:42:41;26.90;99.90
32348;DHT22;18821;44.800;10.326;2023-07-22T06:45:07;26.80;99.90
32348;DHT22;18821;44.800;10.326;2023-07-22T06:47:33;25.90;99.90
32348;DHT22;18821;44.800;10.326;2023-07-22T06:50:00;26.70;99.90
32348;DHT22;18821;44.800;10.326;2023-07-22T06:52:26;27.60;99.90
32348;DHT22;18821;44.800;10.326;2023-07-22T06:54:52;26.60;99.90
32348;DHT22;18821;44.800;10.326;2023-07-22T06:57:18;26.40;99.90
32348;DHT22;18821;44.800;10.326;2023-07-22T06:59:44;25.10;99.90
32348;DHT22;18821;44.800;10.326;2023-07-22T07:07:03;26.90;99.90
32348;DHT22;18821;44.800;10.326;2023-07-22T07:09:29;26.80;99.90
32348;DHT22;18821;44.800;10.326;2023-07-22T07:14:23;27.00;99.90
32348;DHT22;18821;44.800;10.326;2023-07-22T07:16:50;28.10;99.90
32348;DHT22;18821;44.800;10.326;2023-07-22T07:19:16;27.50;99.90
32348;DHT22;18821;44.800;10.326;2023-07-22T07:26:35;27.50;99.90
32348;DHT22;18821;44.800;10.326;2023-07-22T07:29:01;27.00;99.90
32348;DHT22;18821;44.800;10.326;2023-07-22T07:33:53;27.10;99.90
32348;DHT22;18821;44.800;10.326;2023-07-22T07:43:41;26.90;99.90
32348;DHT22;18821;44.800;10.326;2023-07-22T07:46:22;26.00;99.90
32348;DHT22;18821;44.800;10.326;2023-07-22T07:48:53;27.00;99.90
32348;DHT22;18821;44.800;10.326;2023-07-22T07:51:21;26.30;99.90
32348;DHT22;18821;44.800;10.326;2023-07-22T07:53:48;26.70;99.90
32348;DHT22;18821;44.800;10.326;2023-07-22T07:56:14;26.30;99.90
32348;DHT22;18821;44.800;10.326;2023-07-22T08:03:34;26.50;99.90
32348;DHT22;18821;44.800;10.326;2023-07-22T08:06:04;26.00;99.90
32348;DHT22;18821;44.800;10.326;2023-07-22T08:08:30;26.30;99.90
32348;DHT22;18821;44.800;10.326;2023-07-22T08:13:25;26.50;99.90
32348;DHT22;18821;44.800;10.326;2023-07-22T08:15:53;26.20;99.90
32348;DHT22;18821;44.800;10.326;2023-07-22T08:20:45;25.80;99.90
32348;DHT22;18821;44.800;10.326;2023-07-22T08:23:13;26.70;99.90
32348;DHT22;18821;44.800;10.326;2023-07-22T08:28:06;27.30;99.90
32348;DHT22;18821;44.800;10.326;2023-07-22T08:37:52;27.30;99.90
32348;DHT22;18821;44.800;10.326;2023-07-22T08:40:19;27.20;99.90
32348;DHT22;18821;44.800;10.326;2023-07-22T08:42:46;27.00;99.90
32348;DHT22;18821;44.800;10.326;2023-07-22T08:45:14;26.70;99.90
32348;DHT22;18821;44.800;10.326;2023-07-22T08:47:47;26.50;99.90
32348;DHT22;18821;44.800;10.326;2023-07-22T08:50:20;26.90;99.90
32348;DHT22;18821;44.800;10.326;2023-07-22T08:52:47;27.20;99.90
32348;DHT22;18821;44.800;10.326;2023-07-22T08:55:13;27.20;99.90
32348;DHT22;18821;44.800;10.326;2023-07-22T09:00:07;28.70;99.90
32348;DHT22;18821;44.800;10.326;2023-07-22T09:02:33;28.20;99.90
32348;DHT22;18821;44.800;10.326;2023-07-22T09:05:00;28.00;99.90
32348;DHT22;18821;44.800;10.326;2023-07-22T09:07:26;28.50;99.90
32348;DHT22;18821;44.800;10.326;2023-07-22T09:09:53;28.70;99.90
32348;DHT22;18821;44.800;10.326;2023-07-22T09:12:20;28.80;99.90
32348;DHT22;18821;44.800;10.326;2023-07-22T09:14:47;28.90;99.90
32348;DHT22;18821;44.800;10.326;2023-07-22T09:17:14;29.10;99.90
32348;DHT22;18821;44.800;10.326;2023-07-22T09:19:40;28.60;99.90
32348;DHT22;18821;44.800;10.326;2023-07-22T09:22:07;27.70;99.90
32348;DHT22;18821;44.800;10.326;2023-07-22T09:24:33;27.90;99.90
32348;DHT22;18821;44.800;10.326;2023-07-22T09:26:59;28.80;99.90
32348;DHT22;18821;44.800;10.326;2023-07-22T09:29:37;28.40;99.90
32348;DHT22;18821;44.800;10.326;2023-07-22T09:32:04;29.00;99.90
32348;DHT22;18821;44.800;10.326;2023-07-22T09:34:30;29.20;99.90
32348;DHT22;18821;44.800;10.326;2023-07-22T09:36:58;29.90;99.90
32348;DHT22;18821;44.800;10.326;2023-07-22T09:39:30;29.80;99.90
32348;DHT22;18821;44.800;10.326;2023-07-22T09:41:56;29.10;99.90
32348;DHT22;18821;44.800;10.326;2023-07-22T09:44:22;29.50;99.90
32348;DHT22;18821;44.800;10.326;2023-07-22T09:46:49;29.50;99.90
32348;DHT22;18821;44.800;10.326;2023-07-22T09:49:19;29.70;99.90
32348;DHT22;18821;44.800;10.326;2023-07-22T09:56:49;29.30;99.90
32348;DHT22;18821;44.800;10.326;2023-07-22T09:59:18;30.30;99.90
32348;DHT22;18821;44.800;10.326;2023-07-22T10:01:46;30.00;99.90
32348;DHT22;18821;44.800;10.326;2023-07-22T10:04:15;29.90;99.90
32348;DHT22;18821;44.800;10.326;2023-07-22T10:06:42;30.00;99.90
32348;DHT22;18821;44.800;10.326;2023-07-22T10:09:10;29.70;99.90
32348;DHT22;18821;44.800;10.326;2023-07-22T10:11:37;29.20;99.90
32348;DHT22;18821;44.800;10.326;2023-07-22T10:14:05;30.00;99.90
32348;DHT22;18821;44.800;10.326;2023-07-22T10:18:59;30.40;99.90
32348;DHT22;18821;44.800;10.326;2023-07-22T10:21:25;30.60;99.90
32348;DHT22;18821;44.800;10.326;2023-07-22T10:23:51;30.70;99.90
32348;DHT22;18821;44.800;10.326;2023-07-22T10:26:19;30.60;99.90
32348;DHT22;18821;44.800;10.326;2023-07-22T10:28:47;30.50;99.90
32348;DHT22;18821;44.800;10.326;2023-07-22T10:31:14;30.80;99.90
32348;DHT22;18821;44.800;10.326;2023-07-22T10:33:46;31.00;99.90
32348;DHT22;18821;44.800;10.326;2023-07-22T10:36:16;30.50;99.90
32348;DHT22;18821;44.800;10.326;2023-07-22T10:38:43;30.40;99.90
32348;DHT22;18821;44.800;10.326;2023-07-22T10:41:15;30.70;99.90
32348;DHT22;18821;44.800;10.326;2023-07-22T10:43:57;30.70;99.90
32348;DHT22;18821;44.800;10.326;2023-07-22T10:46:36;30.70;99.90
32348;DHT22;18821;44.800;10.326;2023-07-22T10:49:15;30.70;99.90
32348;DHT22;18821;44.800;10.326;2023-07-22T10:51:48;31.10;99.90
32348;DHT22;18821;44.800;10.326;2023-07-22T10:54:30;31.40;99.90
32348;DHT22;18821;44.800;10.326;2023-07-22T10:57:23;31.40;99.90
32348;DHT22;18821;44.800;10.326;2023-07-22T10:59:50;31.50;99.90
32348;DHT22;18821;44.800;10.326;2023-07-22T11:02:26;31.60;99.90
32348;DHT22;18821;44.800;10.326;2023-07-22T11:04:52;31.20;99.90
32348;DHT22;18821;44.800;10.326;2023-07-22T11:07:43;31.20;99.90
32348;DHT22;18821;44.800;10.326;2023-07-22T11:10:14;31.70;99.90
32348;DHT22;18821;44.800;10.326;2023-07-22T11:12:43;31.40;99.90
32348;DHT22;18821;44.800;10.326;2023-07-22T11:15:15;31.00;99.90
32348;DHT22;18821;44.800;10.326;2023-07-22T11:17:42;30.90;99.90
32348;DHT22;18821;44.800;10.326;2023-07-22T11:20:08;31.50;99.90
32348;DHT22;18821;44.800;10.326;2023-07-22T11:22:34;31.70;99.90
32348;DHT22;18821;44.800;10.326;2023-07-22T11:25:00;31.70;99.90
32348;DHT22;18821;44.800;10.326;2023-07-22T11:29:52;30.70;99.90
32348;DHT22;18821;44.800;10.326;2023-07-22T11:32:19;30.90;99.90
32348;DHT22;18821;44.800;10.326;2023-07-22T11:34:52;30.10;99.90
32348;DHT22;18821;44.800;10.326;2023-07-22T11:39:48;29.70;99.90
32348;DHT22;18821;44.800;10.326;2023-07-22T11:44:41;29.20;99.90
32348;DHT22;18821;44.800;10.326;2023-07-22T11:49:39;27.80;99.90
32348;DHT22;18821;44.800;10.326;2023-07-22T11:52:06;27.90;99.90
32348;DHT22;18821;44.800;10.326;2023-07-22T11:54:34;27.40;99.90
32348;DHT22;18821;44.800;10.326;2023-07-22T11:57:17;26.50;99.90
32348;DHT22;18821;44.800;10.326;2023-07-22T11:59:51;24.70;99.90
32348;DHT22;18821;44.800;10.326;2023-07-22T12:05:04;24.50;99.90
32348;DHT22;18821;44.800;10.326;2023-07-22T12:07:32;24.50;99.90
32348;DHT22;18821;44.800;10.326;2023-07-22T12:10:01;24.70;99.90
32348;DHT22;18821;44.800;10.326;2023-07-22T12:12:43;24.10;99.90
32348;DHT22;18821;44.800;10.326;2023-07-22T12:15:17;23.90;99.90
32348;DHT22;18821;44.800;10.326;2023-07-22T12:17:55;23.10;99.90
32348;DHT22;18821;44.800;10.326;2023-07-22T12:20:28;23.90;99.90
32348;DHT22;18821;44.800;10.326;2023-07-22T12:22:56;24.50;99.90
32348;DHT22;18821;44.800;10.326;2023-07-22T12:25:22;24.30;99.90
32348;DHT22;18821;44.800;10.326;2023-07-22T12:30:15;25.10;99.90
32348;DHT22;18821;44.800;10.326;2023-07-22T12:32:42;24.00;99.90
32348;DHT22;18821;44.800;10.326;2023-07-22T12:35:11;24.70;99.90
32348;DHT22;18821;44.800;10.326;2023-07-22T12:37:39;24.60;99.90
32348;DHT22;18821;44.800;10.326;2023-07-22T12:40:05;25.90;99.90
32348;DHT22;18821;44.800;10.326;2023-07-22T12:42:34;25.40;99.90
32348;DHT22;18821;44.800;10.326;2023-07-22T12:45:02;25.40;99.90
32348;DHT22;18821;44.800;10.326;2023-07-22T12:47:28;26.60;99.90
32348;DHT22;18821;44.800;10.326;2023-07-22T12:52:20;26.10;99.90
32348;DHT22;18821;44.800;10.326;2023-07-22T12:57:12;26.40;99.90
32348;DHT22;18821;44.800;10.326;2023-07-22T13:04:32;27.00;99.90
32348;DHT22;18821;44.800;10.326;2023-07-22T13:09:24;28.20;99.90
32348;DHT22;18821;44.800;10.326;2023-07-22T13:14:17;29.40;99.90
32348;DHT22;18821;44.800;10.326;2023-07-22T13:16:44;28.80;99.90
32348;DHT22;18821;44.800;10.326;2023-07-22T13:24:03;30.20;99.90
32348;DHT22;18821;44.800;10.326;2023-07-22T13:26:29;29.80;99.90
32348;DHT22;18821;44.800;10.326;2023-07-22T13:28:54;28.90;99.90
32348;DHT22;18821;44.800;10.326;2023-07-22T13:31:20;30.50;99.90
32348;DHT22;18821;44.800;10.326;2023-07-22T13:33:46;30.30;99.90
32348;DHT22;18821;44.800;10.326;2023-07-22T13:36:14;30.50;99.90
32348;DHT22;18821;44.800;10.326;2023-07-22T13:38:40;29.90;99.90
32348;DHT22;18821;44.800;10.326;2023-07-22T13:41:06;31.40;99.90
32348;DHT22;18821;44.800;10.326;2023-07-22T13:43:32;30.40;99.90
32348;DHT22;18821;44.800;10.326;2023-07-22T13:45:58;30.20;99.90
32348;DHT22;18821;44.800;10.326;2023-07-22T13:48:24;30.50;99.90
32348;DHT22;18821;44.800;10.326;2023-07-22T13:55:42;30.40;99.90
32348;DHT22;18821;44.800;10.326;2023-07-22T14:05:27;30.50;99.90
32348;DHT22;18821;44.800;10.326;2023-07-22T14:07:53;31.30;99.90
32348;DHT22;18821;44.800;10.326;2023-07-22T14:10:19;30.00;99.90
32348;DHT22;18821;44.800;10.326;2023-07-22T14:12:45;29.40;99.90
32348;DHT22;18821;44.800;10.326;2023-07-22T14:15:11;29.90;99.90
32348;DHT22;18821;44.800;10.326;2023-07-22T14:20:06;29.90;99.90
32348;DHT22;18821;44.800;10.326;2023-07-22T14:22:33;30.60;99.90
32348;DHT22;18821;44.800;10.326;2023-07-22T14:24:59;34.60;99.90
32348;DHT22;18821;44.800;10.326;2023-07-22T14:27:24;30.00;99.90
32348;DHT22;18821;44.800;10.326;2023-07-22T14:29:50;30.30;99.90
32348;DHT22;18821;44.800;10.326;2023-07-22T14:32:19;30.30;99.90
32348;DHT22;18821;44.800;10.326;2023-07-22T14:34:45;30.50;99.90
32348;DHT22;18821;44.800;10.326;2023-07-22T14:37:11;30.90;99.90
32348;DHT22;18821;44.800;10.326;2023-07-22T14:39:37;30.80;99.90
32348;DHT22;18821;44.800;10.326;2023-07-22T14:42:02;30.40;99.90
32348;DHT22;18821;44.800;10.326;2023-07-22T14:44:38;30.80;99.90
32348;DHT22;18821;44.800;10.326;2023-07-22T14:47:04;31.00;99.90
32348;DHT22;18821;44.800;10.326;2023-07-22T14:49:30;31.00;99.90
32348;DHT22;18821;44.800;10.326;2023-07-22T14:51:56;31.50;99.90
32348;DHT22;18821;44.800;10.326;2023-07-22T14:54:22;30.90;99.90
32348;DHT22;18821;44.800;10.326;2023-07-22T14:56:48;30.90;99.90
32348;DHT22;18821;44.800;10.326;2023-07-22T14:59:15;30.40;99.90
32348;DHT22;18821;44.800;10.326;2023-07-22T15:01:42;31.40;99.90
32348;DHT22;18821;44.800;10.326;2023-07-22T15:04:08;29.60;99.90
32348;DHT22;18821;44.800;10.326;2023-07-22T15:06:35;30.70;99.90
32348;DHT22;18821;44.800;10.326;2023-07-22T15:09:02;30.70;99.90
32348;DHT22;18821;44.800;10.326;2023-07-22T15:11:33;30.90;99.90
32348;DHT22;18821;44.800;10.326;2023-07-22T15:16:25;30.50;99.90
32348;DHT22;18821;44.800;10.326;2023-07-22T15:18:51;31.00;99.90
32348;DHT22;18821;44.800;10.326;2023-07-22T15:21:17;30.70;99.90
32348;DHT22;18821;44.800;10.326;2023-07-22T15:23:43;30.70;99.90
32348;DHT22;18821;44.800;10.326;2023-07-22T15:26:09;30.60;99.90
32348;DHT22;18821;44.800;10.326;2023-07-22T15:33:27;30.40;99.90
32348;DHT22;18821;44.800;10.326;2023-07-22T15:35:54;30.40;99.90
32348;DHT22;18821;44.800;10.326;2023-07-22T15:40:47;30.40;99.90
32348;DHT22;18821;44.800;10.326;2023-07-22T15:45:40;30.80;99.90
32348;DHT22;18821;44.800;10.326;2023-07-22T15:48:06;30.30;99.90
32348;DHT22;18821;44.800;10.326;2023-07-22T15:50:32;29.90;99.90
32348;DHT22;18821;44.800;10.326;2023-07-22T15:53:01;30.20;99.90
32348;DHT22;18821;44.800;10.326;2023-07-22T15:57:57;30.30;99.90
32348;DHT22;18821;44.800;10.326;2023-07-22T16:00:26;30.00;99.90
32348;DHT22;18821;44.800;10.326;2023-07-22T16:02:51;30.30;99.90
32348;DHT22;18821;44.800;10.326;2023-07-22T16:05:17;30.30;99.90
32348;DHT22;18821;44.800;10.326;2023-07-22T16:07:43;30.30;99.90
32348;DHT22;18821;44.800;10.326;2023-07-22T16:10:10;30.30;99.90
32348;DHT22;18821;44.800;10.326;2023-07-22T16:12:35;30.30;99.90
32348;DHT22;18821;44.800;10.326;2023-07-22T16:15:01;30.20;99.90
32348;DHT22;18821;44.800;10.326;2023-07-22T16:17:31;30.10;99.90
32348;DHT22;18821;44.800;10.326;2023-07-22T16:19:58;30.00;99.90
32348;DHT22;18821;44.800;10.326;2023-07-22T16:22:24;29.90;99.90
32348;DHT22;18821;44.800;10.326;2023-07-22T16:24:50;30.30;99.90
32348;DHT22;18821;44.800;10.326;2023-07-22T16:27:16;30.00;99.90
32348;DHT22;18821;44.800;10.326;2023-07-22T16:29:42;30.00;99.90
32348;DHT22;18821;44.800;10.326;2023-07-22T16:32:09;29.60;99.90
32348;DHT22;18821;44.800;10.326;2023-07-22T16:34:35;29.40;99.90
32348;DHT22;18821;44.800;10.326;2023-07-22T16:37:02;30.20;99.90
32348;DHT22;18821;44.800;10.326;2023-07-22T16:39:28;30.20;99.90
32348;DHT22;18821;44.800;10.326;2023-07-22T16:41:54;30.00;99.90
32348;DHT22;18821;44.800;10.326;2023-07-22T16:44:20;29.90;99.90
32348;DHT22;18821;44.800;10.326;2023-07-22T16:46:48;29.90;99.90
32348;DHT22;18821;44.800;10.326;2023-07-22T16:49:14;29.90;99.90
32348;DHT22;18821;44.800;10.326;2023-07-22T16:51:40;29.70;99.90
32348;DHT22;18821;44.800;10.326;2023-07-22T16:54:06;29.90;99.90
32348;DHT22;18821;44.800;10.326;2023-07-22T16:56:32;29.90;99.90
32348;DHT22;18821;44.800;10.326;2023-07-22T16:58:58;29.90;99.90
32348;DHT22;18821;44.800;10.326;2023-07-22T17:01:24;29.90;99.90
32348;DHT22;18821;44.800;10.326;2023-07-22T17:03:50;29.90;99.90
32348;DHT22;18821;44.800;10.326;2023-07-22T17:06:16;30.20;99.90
32348;DHT22;18821;44.800;10.326;2023-07-22T17:08:42;29.80;99.90
32348;DHT22;18821;44.800;10.326;2023-07-22T17:23:19;29.20;99.90
32348;DHT22;18821;44.800;10.326;2023-07-22T17:30:39;29.60;99.90
32348;DHT22;18821;44.800;10.326;2023-07-22T17:33:05;28.90;99.90
32348;DHT22;18821;44.800;10.326;2023-07-22T17:35:33;28.60;99.90
32348;DHT22;18821;44.800;10.326;2023-07-22T17:38:00;28.70;99.90
32348;DHT22;18821;44.800;10.326;2023-07-22T17:40:26;29.30;99.90
32348;DHT22;18821;44.800;10.326;2023-07-22T17:45:23;28.60;99.90
32348;DHT22;18821;44.800;10.326;2023-07-22T17:47:49;29.20;99.90
32348;DHT22;18821;44.800;10.326;2023-07-22T17:50:15;28.60;99.90
32348;DHT22;18821;44.800;10.326;2023-07-22T17:52:42;28.60;99.90
32348;DHT22;18821;44.800;10.326;2023-07-22T17:55:08;28.60;99.90
32348;DHT22;18821;44.800;10.326;2023-07-22T17:57:34;28.60;99.90
32348;DHT22;18821;44.800;10.326;2023-07-22T18:00:00;27.80;99.90
32348;DHT22;18821;44.800;10.326;2023-07-22T18:02:26;28.20;99.90
32348;DHT22;18821;44.800;10.326;2023-07-22T18:04:52;27.80;99.90
32348;DHT22;18821;44.800;10.326;2023-07-22T18:07:18;27.90;99.90
32348;DHT22;18821;44.800;10.326;2023-07-22T18:12:10;28.70;99.90
32348;DHT22;18821;44.800;10.326;2023-07-22T18:14:42;28.60;99.90
32348;DHT22;18821;44.800;10.326;2023-07-22T18:22:00;28.20;99.90
32348;DHT22;18821;44.800;10.326;2023-07-22T18:26:53;28.80;99.90
32348;DHT22;18821;44.800;10.326;2023-07-22T18:31:45;28.50;99.90